Terminal Aerodrome Forecast
Issued by NWS Jackson, MS

Home | Current Version | Previous Version | Text Only | Print | Product List | Glossary On
Versions: 1 2 3 4 5 6 7 8 9 10 11 12 13 14 15 16 17
000
FTUS44 KJAN 221912 AAA
TAFMEI
TAF AMD
KMEI 221912Z 2219/2318 00000KT P6SM VCSH FEW110
     FM222000 26011G17KT 5SM BR VCSH BKN050
     FM230200 27013KT 5SM -SHRA BKN035 OVC050
     FM230500 29014KT 2SM BR OVC009
     FM231500 33017G23KT P6SM OVC015=

USA.gov is the U.S. government's official web portal to all federal, state and local government web resources and services.